createdAt,value
2022-08-25T00:00:34.409Z,27.09
2022-08-25T00:05:36.558Z,27.10
2022-08-25T00:10:39.612Z,27.14
2022-08-25T00:15:41.641Z,27.14
2022-08-25T00:20:48.964Z,27.16
2022-08-25T00:25:51.634Z,27.14
2022-08-25T00:30:53.648Z,27.14
2022-08-25T00:35:56.627Z,27.04
2022-08-25T00:41:08.048Z,26.98
2022-08-25T00:46:11.843Z,26.89
2022-08-25T00:51:19.420Z,26.84
2022-08-25T00:56:21.577Z,26.76
2022-08-25T01:01:24.562Z,26.67
2022-08-25T01:06:28.733Z,26.63
2022-08-25T01:11:30.742Z,26.67
2022-08-25T01:16:37.789Z,26.73
2022-08-25T01:21:44.973Z,26.77
2022-08-25T01:26:47.699Z,26.77
2022-08-25T01:31:53.133Z,26.75
2022-08-25T01:36:56.632Z,26.74
2022-08-25T01:42:09.322Z,26.74
2022-08-25T01:47:12.706Z,26.71
2022-08-25T01:52:25.905Z,26.71
2022-08-25T01:57:30.805Z,26.62
2022-08-25T02:02:32.957Z,26.70
2022-08-25T02:07:36.154Z,26.66
2022-08-25T02:12:38.340Z,26.57
2022-08-25T02:17:40.547Z,26.62
2022-08-25T02:22:43.462Z,26.57
2022-08-25T02:27:53.292Z,26.56
2022-08-25T02:32:55.457Z,26.57
2022-08-25T02:37:57.407Z,26.56
2022-08-25T02:42:59.357Z,26.60
2022-08-25T02:48:01.594Z,26.64
2022-08-25T02:53:03.971Z,26.60
2022-08-25T02:58:06.464Z,26.71
2022-08-25T03:03:08.589Z,26.67
2022-08-25T03:08:11.227Z,26.74
2022-08-25T03:13:13.312Z,26.73
2022-08-25T03:18:15.724Z,26.74
2022-08-25T03:23:18.028Z,26.76
2022-08-25T03:28:20.687Z,26.73
2022-08-25T03:33:31.368Z,26.65
2022-08-25T03:38:33.551Z,26.67
2022-08-25T03:43:35.605Z,26.74
2022-08-25T03:48:37.619Z,26.81
2022-08-25T03:53:39.692Z,26.81
2022-08-25T03:58:41.780Z,26.87
2022-08-25T04:03:43.957Z,26.87
2022-08-25T04:08:46.349Z,26.90
2022-08-25T04:13:49.056Z,26.87
2022-08-25T04:18:52.547Z,26.85
2022-08-25T04:23:56.020Z,26.89
2022-08-25T04:29:00.241Z,26.92
2022-08-25T04:34:04.157Z,26.93
2022-08-25T04:39:17.532Z,26.90
2022-08-25T04:44:19.512Z,26.80
2022-08-25T04:49:21.571Z,26.76
2022-08-25T04:54:23.676Z,26.70
2022-08-25T04:59:29.379Z,26.71
2022-08-25T05:04:36.915Z,26.72
2022-08-25T05:09:39.002Z,26.77
2022-08-25T05:14:41.086Z,26.80
2022-08-25T05:19:43.172Z,26.85
2022-08-25T05:24:45.141Z,26.85
2022-08-25T05:29:47.161Z,26.84
2022-08-25T05:34:49.190Z,26.81
2022-08-25T05:39:51.279Z,26.76
2022-08-25T05:44:53.210Z,26.74
2022-08-25T05:49:55.203Z,26.73
2022-08-25T05:54:57.977Z,26.69
2022-08-25T06:00:00.023Z,26.70
2022-08-25T06:05:02.245Z,26.67
2022-08-25T06:10:06.676Z,26.69
2022-08-25T06:15:09.351Z,26.69
2022-08-25T06:20:25.391Z,26.73
2022-08-25T06:25:28.197Z,26.75
2022-08-25T06:30:30.217Z,26.77
2022-08-25T06:35:32.361Z,26.74
2022-08-25T06:40:37.946Z,26.80
2022-08-25T06:45:40.045Z,26.84
2022-08-25T06:50:42.488Z,26.81
2022-08-25T06:56:06.630Z,26.85
2022-08-25T07:01:33.345Z,26.88
2022-08-25T07:06:55.132Z,26.92
2022-08-25T07:12:17.148Z,26.97
2022-08-25T07:17:39.181Z,27.01
2022-08-25T07:23:02.235Z,26.95
2022-08-25T07:28:25.352Z,26.91
2022-08-25T07:33:34.198Z,26.94
2022-08-25T07:38:36.251Z,26.88
2022-08-25T07:43:39.541Z,27.03
2022-08-25T07:48:42.093Z,27.05
2022-08-25T07:53:47.026Z,27.13
2022-08-25T07:58:49.053Z,27.18
2022-08-25T08:03:52.307Z,27.18
2022-08-25T08:08:57.735Z,27.24
2022-08-25T08:14:03.964Z,27.29
2022-08-25T08:19:06.230Z,27.35
2022-08-25T08:24:24.839Z,27.34
2022-08-25T08:29:30.738Z,27.35
2022-08-25T08:34:34.164Z,27.37
2022-08-25T08:39:37.492Z,27.31
2022-08-25T08:44:45.510Z,27.31
2022-08-25T08:50:11.009Z,27.29
2022-08-25T08:55:27.979Z,27.28
2022-08-25T09:00:33.285Z,27.32
2022-08-25T09:06:00.407Z,27.31
2022-08-25T09:11:16.565Z,27.33
2022-08-25T09:16:56.231Z,27.31
2022-08-25T09:22:34.971Z,27.35
2022-08-25T09:27:33.121Z,27.33
2022-08-25T09:32:48.721Z,27.37
2022-08-25T09:38:00.105Z,27.37
2022-08-25T09:43:05.964Z,27.31
2022-08-25T09:48:42.111Z,27.41
2022-08-25T09:54:16.507Z,27.41
2022-08-25T09:59:35.260Z,27.44
2022-08-25T10:04:40.455Z,27.45
2022-08-25T10:09:43.811Z,27.45
2022-08-25T10:14:48.442Z,27.47
2022-08-25T10:19:56.342Z,27.45
2022-08-25T10:25:00.480Z,27.51
2022-08-25T10:30:33.883Z,27.51
2022-08-25T10:36:03.743Z,27.56
2022-08-25T10:41:14.785Z,27.64
2022-08-25T10:46:31.293Z,27.65
2022-08-25T10:51:40.307Z,27.62
2022-08-25T10:57:08.137Z,27.66
2022-08-25T11:02:41.572Z,27.67
2022-08-25T11:07:50.287Z,27.74
2022-08-25T11:12:57.699Z,27.78
2022-08-25T11:18:14.398Z,27.68
2022-08-25T11:23:32.543Z,27.82
2022-08-25T11:28:59.176Z,27.83
2022-08-25T11:34:01.233Z,27.89
2022-08-25T11:39:08.107Z,27.90
2022-08-25T11:44:15.866Z,27.90
2022-08-25T11:49:48.077Z,27.86
2022-08-25T11:54:50.181Z,27.92
2022-08-25T11:59:57.683Z,27.98
2022-08-25T12:04:59.725Z,27.99
2022-08-25T12:10:05.960Z,27.98
2022-08-25T12:15:27.581Z,28.00
2022-08-25T12:20:57.771Z,28.02
2022-08-25T12:26:04.825Z,28.01
2022-08-25T12:31:49.644Z,27.97
2022-08-25T12:37:02.260Z,27.95
2022-08-25T12:42:26.197Z,27.94
2022-08-25T12:47:32.486Z,27.93
2022-08-25T12:52:38.455Z,27.94
2022-08-25T12:57:50.920Z,27.92
2022-08-25T13:03:10.080Z,27.93
2022-08-25T13:08:46.778Z,27.93
2022-08-25T13:13:57.669Z,27.92
2022-08-25T13:19:05.697Z,27.93
2022-08-25T13:24:26.499Z,27.92
2022-08-25T13:29:36.884Z,27.91
2022-08-25T13:34:43.813Z,27.92
2022-08-25T13:39:56.709Z,27.92
2022-08-25T13:45:00.789Z,27.90
2022-08-25T13:50:31.704Z,27.90
2022-08-25T13:55:51.611Z,27.92
2022-08-25T14:01:47.624Z,27.92
2022-08-25T14:07:14.050Z,27.91
2022-08-25T14:12:33.271Z,27.91
2022-08-25T14:17:40.117Z,27.93
2022-08-25T14:22:42.663Z,27.93
2022-08-25T14:28:06.690Z,27.92
2022-08-25T14:33:09.050Z,27.94
2022-08-25T14:38:12.181Z,27.94
2022-08-25T14:43:15.012Z,27.81
2022-08-25T14:48:40.988Z,27.92
2022-08-25T14:53:44.392Z,27.92
2022-08-25T14:58:50.796Z,27.98
2022-08-25T15:03:58.056Z,28.05
2022-08-25T15:09:11.716Z,28.09
2022-08-25T15:14:15.902Z,28.06
2022-08-25T15:19:23.636Z,28.19
2022-08-25T15:24:27.164Z,28.23
2022-08-25T15:29:31.004Z,28.28
2022-08-25T15:34:33.408Z,28.29
2022-08-25T15:39:37.129Z,28.34
2022-08-25T15:44:40.222Z,28.35
2022-08-25T15:49:43.560Z,28.40
2022-08-25T15:54:46.354Z,28.45
2022-08-25T15:59:49.513Z,28.45
2022-08-25T16:04:53.068Z,28.49
2022-08-25T16:09:59.548Z,28.52
2022-08-25T16:15:02.184Z,28.53
2022-08-25T16:20:04.707Z,28.55
2022-08-25T16:25:08.852Z,28.54
2022-08-25T16:30:16.763Z,28.54
2022-08-25T16:35:19.935Z,28.56
2022-08-25T16:40:26.444Z,28.56
2022-08-25T16:45:28.679Z,28.62
2022-08-25T16:50:34.624Z,28.60
2022-08-25T16:55:39.242Z,28.60
2022-08-25T17:00:44.786Z,28.61
2022-08-25T17:05:46.959Z,28.61
2022-08-25T17:10:48.967Z,28.63
2022-08-25T17:15:52.289Z,28.60
2022-08-25T17:21:09.824Z,28.59
2022-08-25T17:26:18.321Z,28.60
2022-08-25T17:31:21.776Z,28.62
2022-08-25T17:36:26.987Z,28.65
2022-08-25T17:41:30.345Z,28.66
2022-08-25T17:46:33.185Z,28.61
2022-08-25T17:51:35.376Z,28.62
2022-08-25T17:56:37.387Z,28.64
2022-08-25T18:01:40.522Z,28.65
2022-08-25T18:06:43.156Z,28.65
2022-08-25T18:11:45.667Z,28.59
2022-08-25T18:16:47.822Z,28.62
2022-08-25T18:21:50.084Z,28.67
2022-08-25T18:26:54.520Z,28.64
2022-08-25T18:32:00.273Z,28.57
2022-08-25T18:37:24.228Z,28.54
2022-08-25T18:42:28.836Z,28.54
2022-08-25T18:47:31.066Z,28.50
2022-08-25T18:52:33.124Z,28.48
2022-08-25T18:57:38.814Z,28.40
2022-08-25T19:02:48.031Z,28.43
2022-08-25T19:07:52.233Z,28.43
2022-08-25T19:12:54.920Z,28.44
2022-08-25T19:17:59.296Z,28.46
2022-08-25T19:23:02.227Z,28.47
2022-08-25T19:28:08.335Z,28.48
2022-08-25T19:33:14.168Z,28.46
2022-08-25T19:38:37.613Z,28.43
2022-08-25T19:43:40.101Z,28.46
2022-08-25T19:48:52.691Z,28.45
2022-08-25T19:53:57.132Z,28.42
2022-08-25T19:59:00.100Z,28.44
2022-08-25T20:04:03.629Z,28.45
2022-08-25T20:09:06.315Z,28.40
2022-08-25T20:14:12.160Z,28.41
2022-08-25T20:19:15.872Z,28.42
2022-08-25T20:24:36.701Z,28.41
2022-08-25T20:29:39.092Z,28.42
2022-08-25T20:34:42.022Z,28.39
2022-08-25T20:39:44.664Z,28.39
2022-08-25T20:44:47.236Z,28.39
2022-08-25T20:49:50.300Z,28.42
2022-08-25T20:54:52.624Z,28.40
2022-08-25T20:59:55.647Z,28.41
2022-08-25T21:04:57.780Z,28.39
2022-08-25T21:10:00.570Z,28.39
2022-08-25T21:15:04.417Z,28.34
2022-08-25T21:20:09.731Z,28.33
2022-08-25T21:25:13.480Z,28.35
2022-08-25T21:30:15.595Z,28.36
2022-08-25T21:35:17.824Z,28.33
2022-08-25T21:40:20.234Z,28.30
2022-08-25T21:45:22.379Z,28.25
2022-08-25T21:50:24.721Z,28.27
2022-08-25T21:55:27.166Z,28.25
2022-08-25T22:00:29.316Z,28.15
2022-08-25T22:05:31.392Z,28.06
2022-08-25T22:10:33.488Z,28.01
2022-08-25T22:15:35.549Z,27.94
2022-08-25T22:20:39.216Z,27.88
2022-08-25T22:25:43.681Z,27.89
2022-08-25T22:30:46.473Z,27.88
2022-08-25T22:35:49.850Z,27.89
2022-08-25T22:40:55.459Z,27.90
2022-08-25T22:46:05.251Z,27.88
2022-08-25T22:51:10.033Z,27.83
2022-08-25T22:56:13.674Z,27.81
2022-08-25T23:01:20.471Z,27.82
2022-08-25T23:06:25.106Z,27.82
2022-08-25T23:11:29.025Z,27.78
2022-08-25T23:16:32.459Z,27.72
2022-08-25T23:21:53.686Z,27.70
2022-08-25T23:27:00.921Z,27.66
2022-08-25T23:32:04.510Z,27.67
2022-08-25T23:37:08.020Z,27.64
2022-08-25T23:42:10.018Z,27.65
2022-08-25T23:47:12.304Z,27.65
2022-08-25T23:52:17.541Z,27.65
2022-08-25T23:57:19.838Z,27.63
